createdAt,value
2017-08-01T00:00:10.227Z,3.07
2017-08-01T00:02:39.153Z,2.90
2017-08-01T00:05:07.304Z,4.40
2017-08-01T00:07:35.475Z,3.70
2017-08-01T00:10:03.630Z,2.90
2017-08-01T00:12:31.766Z,4.33
2017-08-01T00:14:59.943Z,3.37
2017-08-01T00:17:28.086Z,3.33
2017-08-01T00:19:56.376Z,3.00
2017-08-01T00:22:24.536Z,2.83
2017-08-01T00:24:52.685Z,3.40
2017-08-01T00:27:20.855Z,3.40
2017-08-01T00:29:48.992Z,3.20
2017-08-01T00:32:17.956Z,3.10
2017-08-01T00:34:46.090Z,3.43
2017-08-01T00:37:14.303Z,2.90
2017-08-01T00:39:42.480Z,3.20
2017-08-01T00:42:10.631Z,2.17
2017-08-01T00:44:38.807Z,3.30
2017-08-01T00:47:06.949Z,2.90
2017-08-01T00:49:36.010Z,3.00
2017-08-01T00:52:04.909Z,2.90
2017-08-01T00:54:33.054Z,3.13
2017-08-01T00:57:01.227Z,3.10
2017-08-01T00:59:30.151Z,2.80
2017-08-01T01:01:58.323Z,3.17
2017-08-01T01:04:26.452Z,3.30
2017-08-01T01:06:54.606Z,3.10
2017-08-01T01:09:22.738Z,2.70
2017-08-01T01:11:51.011Z,3.93
2017-08-01T01:14:19.154Z,2.63
2017-08-01T01:16:47.297Z,2.73
2017-08-01T01:19:15.458Z,3.00
2017-08-01T01:21:43.603Z,2.70
2017-08-01T01:24:11.882Z,2.27
2017-08-01T01:26:40.012Z,2.70
2017-08-01T01:29:08.140Z,2.67
2017-08-01T01:31:36.330Z,3.13
2017-08-01T01:34:04.478Z,3.50
2017-08-01T01:36:32.755Z,3.53
2017-08-01T01:39:00.912Z,3.00
2017-08-01T01:41:29.057Z,3.40
2017-08-01T01:43:57.227Z,3.10
2017-08-01T01:46:25.394Z,3.90
2017-08-01T01:48:53.678Z,3.07
2017-08-01T01:51:22.595Z,3.00
2017-08-01T01:53:50.747Z,3.07
2017-08-01T01:56:18.930Z,3.13
2017-08-01T01:58:47.087Z,4.00
2017-08-01T02:01:15.267Z,3.70
2017-08-01T02:03:43.431Z,3.17
2017-08-01T02:06:12.370Z,3.50
2017-08-01T02:08:40.514Z,2.73
2017-08-01T02:11:08.655Z,3.90
2017-08-01T02:13:37.598Z,4.00
2017-08-01T02:16:05.729Z,4.37
2017-08-01T02:18:33.919Z,3.00
2017-08-01T02:21:02.073Z,3.03
2017-08-01T02:23:30.214Z,3.07
2017-08-01T02:25:58.400Z,4.40
2017-08-01T02:28:26.538Z,3.10
2017-08-01T02:30:54.812Z,2.83
2017-08-01T02:33:22.941Z,3.10
2017-08-01T02:35:51.076Z,3.10
2017-08-01T02:38:19.229Z,3.00
2017-08-01T02:40:47.374Z,2.93
2017-08-01T02:43:15.587Z,3.30
2017-08-01T02:45:43.730Z,2.93
2017-08-01T02:48:11.889Z,3.70
2017-08-01T02:50:40.067Z,4.03
2017-08-01T02:53:08.207Z,3.33
2017-08-01T02:55:37.243Z,3.37
2017-08-01T02:58:06.150Z,3.60
2017-08-01T03:00:35.082Z,3.57
2017-08-01T03:03:04.110Z,4.17
2017-08-01T03:05:32.251Z,2.90
2017-08-01T03:08:00.423Z,4.50
2017-08-01T03:10:29.354Z,3.43
2017-08-01T03:12:57.540Z,3.10
2017-08-01T03:15:25.675Z,4.33
2017-08-01T03:17:53.823Z,3.53
2017-08-01T03:20:21.975Z,3.33
2017-08-01T03:22:50.886Z,3.63
2017-08-01T03:25:19.843Z,3.53
2017-08-01T03:27:47.973Z,3.40
2017-08-01T03:30:16.099Z,3.50
2017-08-01T03:32:44.271Z,3.93
2017-08-01T03:35:13.169Z,3.93
2017-08-01T03:37:42.107Z,3.43
2017-08-01T03:40:10.250Z,3.67
2017-08-01T03:42:38.436Z,3.20
2017-08-01T03:45:06.570Z,3.50
2017-08-01T03:47:35.463Z,3.20
2017-08-01T03:50:04.402Z,4.10
2017-08-01T03:52:32.551Z,3.77
2017-08-01T03:55:00.726Z,3.40
2017-08-01T03:57:28.870Z,3.47
2017-08-01T03:59:57.797Z,4.97
2017-08-01T04:02:25.990Z,4.27
2017-08-01T04:04:54.117Z,4.10
2017-08-01T04:07:22.297Z,3.60
2017-08-01T04:09:50.447Z,4.40
2017-08-01T04:12:18.709Z,4.40
2017-08-01T04:14:47.597Z,3.03
2017-08-01T04:17:15.729Z,4.23
2017-08-01T04:19:43.892Z,4.30
2017-08-01T04:22:12.032Z,4.73
2017-08-01T04:24:40.286Z,5.37
2017-08-01T04:27:08.435Z,5.10
2017-08-01T04:29:36.575Z,4.30
2017-08-01T04:32:04.734Z,3.67
2017-08-01T04:34:32.869Z,4.37
2017-08-01T04:37:01.809Z,4.20
2017-08-01T04:39:29.954Z,4.27
2017-08-01T04:41:58.127Z,4.00
2017-08-01T04:44:26.281Z,4.73
2017-08-01T04:46:55.175Z,4.63
2017-08-01T04:49:24.122Z,4.30
2017-08-01T04:51:52.311Z,3.20
2017-08-01T04:54:20.611Z,3.10
2017-08-01T04:56:49.514Z,5.00
2017-08-01T04:59:17.652Z,3.83
2017-08-01T05:01:45.807Z,4.10
2017-08-01T05:04:13.953Z,4.70
2017-08-01T05:06:42.139Z,5.00
2017-08-01T05:09:10.278Z,4.27
2017-08-01T05:11:38.415Z,4.00
2017-08-01T05:14:06.591Z,3.53
2017-08-01T05:16:35.496Z,2.90
2017-08-01T05:19:04.533Z,5.40
2017-08-01T05:21:32.677Z,3.73
2017-08-01T05:24:00.818Z,4.20
2017-08-01T05:26:29.756Z,3.53
2017-08-01T05:28:57.902Z,5.57
2017-08-01T05:31:26.057Z,4.23
2017-08-01T05:33:54.187Z,4.40
2017-08-01T05:36:22.309Z,3.50
2017-08-01T05:38:50.475Z,3.83
2017-08-01T05:41:18.608Z,4.87
2017-08-01T05:43:46.779Z,4.23
2017-08-01T05:46:14.935Z,4.00
2017-08-01T05:48:43.112Z,5.20
2017-08-01T05:51:11.273Z,4.17
2017-08-01T05:53:39.457Z,3.90
2017-08-01T05:56:07.604Z,3.83
2017-08-01T05:58:35.874Z,4.43
2017-08-01T06:01:04.007Z,3.70
2017-08-01T06:03:32.167Z,3.60
2017-08-01T06:06:00.322Z,4.30
2017-08-01T06:08:28.474Z,4.30
2017-08-01T06:10:56.741Z,4.93
2017-08-01T06:13:24.895Z,3.73
2017-08-01T06:15:53.027Z,4.30
2017-08-01T06:18:21.203Z,3.97
2017-08-01T06:20:49.338Z,3.60
2017-08-01T06:23:17.504Z,3.67
2017-08-01T06:25:45.632Z,3.70
2017-08-01T06:28:14.761Z,5.20
2017-08-01T06:30:42.903Z,3.80
2017-08-01T06:33:11.946Z,4.23
2017-08-01T06:35:40.095Z,4.37
2017-08-01T06:38:08.231Z,4.90
2017-08-01T06:40:37.172Z,5.33
2017-08-01T06:43:05.297Z,4.00
2017-08-01T06:45:34.328Z,4.40
2017-08-01T06:48:02.469Z,4.90
2017-08-01T06:50:30.615Z,4.40
2017-08-01T06:52:58.794Z,5.03
2017-08-01T06:55:27.712Z,5.10
2017-08-01T06:57:56.737Z,3.93
2017-08-01T07:00:24.876Z,4.23
2017-08-01T07:02:53.055Z,5.07
2017-08-01T07:05:21.293Z,4.93
2017-08-01T07:07:49.489Z,4.70
2017-08-01T07:10:18.467Z,4.57
2017-08-01T07:12:47.381Z,4.90
2017-08-01T07:15:15.537Z,3.00
2017-08-01T07:17:43.676Z,4.87
2017-08-01T07:20:11.817Z,4.30
2017-08-01T07:22:40.035Z,3.57
2017-08-01T07:25:08.182Z,5.07
2017-08-01T07:27:36.449Z,3.63
2017-08-01T07:30:04.587Z,4.03
2017-08-01T07:32:32.734Z,4.30
2017-08-01T07:35:00.922Z,3.97
2017-08-01T07:37:29.070Z,3.70
2017-08-01T07:39:58.029Z,3.20
2017-08-01T07:42:26.184Z,5.23
2017-08-01T07:44:54.332Z,4.47
2017-08-01T07:47:22.503Z,4.00
2017-08-01T07:49:50.637Z,2.80
2017-08-01T07:52:18.795Z,4.80
2017-08-01T07:54:46.971Z,3.43
2017-08-01T07:57:16.030Z,3.40
2017-08-01T07:59:44.166Z,2.83
2017-08-01T08:02:12.319Z,3.20
2017-08-01T08:04:41.267Z,3.70
2017-08-01T08:07:09.420Z,3.03
2017-08-01T08:09:37.638Z,3.63
2017-08-01T08:12:05.790Z,3.03
2017-08-01T08:14:33.927Z,3.60
2017-08-01T08:17:02.099Z,2.60
2017-08-01T08:19:30.229Z,3.03
2017-08-01T08:21:58.396Z,2.50
2017-08-01T08:24:26.532Z,2.67
2017-08-01T08:26:54.670Z,3.80
2017-08-01T08:29:22.871Z,4.50
2017-08-01T08:31:51.011Z,3.93
2017-08-01T08:34:19.165Z,2.80
2017-08-01T08:36:47.301Z,3.27
2017-08-01T08:39:15.491Z,4.23
2017-08-01T08:41:43.664Z,3.83
2017-08-01T08:44:11.805Z,4.37
2017-08-01T08:46:39.976Z,3.17
2017-08-01T08:49:08.121Z,3.57
2017-08-01T08:51:36.381Z,3.70
2017-08-01T08:54:05.285Z,3.70
2017-08-01T08:56:33.429Z,3.67
2017-08-01T08:59:01.585Z,3.23
2017-08-01T09:01:29.727Z,3.30
2017-08-01T09:03:57.901Z,4.70
2017-08-01T09:06:26.104Z,3.70
2017-08-01T09:08:54.243Z,3.80
2017-08-01T09:11:22.424Z,3.73
2017-08-01T09:13:50.558Z,3.47
2017-08-01T09:16:18.827Z,3.57
2017-08-01T09:18:47.741Z,3.73
2017-08-01T09:21:15.876Z,3.13
2017-08-01T09:23:44.810Z,3.03
2017-08-01T09:26:12.941Z,3.50
2017-08-01T09:28:41.968Z,3.20
2017-08-01T09:31:10.108Z,4.50
2017-08-01T09:33:38.289Z,3.90
2017-08-01T09:36:06.463Z,3.70
2017-08-01T09:38:34.593Z,4.20
2017-08-01T09:41:02.889Z,4.10
2017-08-01T09:43:31.798Z,3.63
2017-08-01T09:45:59.946Z,3.40
2017-08-01T09:48:28.870Z,3.50
2017-08-01T09:50:57.005Z,3.30
2017-08-01T09:53:25.196Z,3.77
2017-08-01T09:55:53.325Z,3.33
2017-08-01T09:58:21.471Z,3.60
2017-08-01T10:00:49.666Z,3.27
2017-08-01T10:03:17.815Z,4.20
2017-08-01T10:05:46.082Z,4.10
2017-08-01T10:08:14.222Z,4.00
2017-08-01T10:10:43.118Z,3.87
2017-08-01T10:13:11.292Z,4.30
2017-08-01T10:15:39.431Z,3.90
2017-08-01T10:18:07.689Z,4.10
2017-08-01T10:20:35.825Z,3.90
2017-08-01T10:23:03.956Z,4.10
2017-08-01T10:25:32.130Z,4.10
2017-08-01T10:28:01.035Z,4.30
2017-08-01T10:30:30.073Z,4.30
2017-08-01T10:32:58.211Z,4.07
2017-08-01T10:35:26.351Z,4.00
2017-08-01T10:37:55.141Z,4.70
2017-08-01T10:40:24.049Z,3.93
2017-08-01T10:42:52.226Z,3.53
2017-08-01T10:45:20.367Z,4.50
2017-08-01T10:47:48.498Z,3.50
2017-08-01T10:50:16.675Z,4.17
2017-08-01T10:52:44.805Z,3.93
2017-08-01T10:55:13.075Z,3.57
2017-08-01T10:57:41.207Z,3.40
2017-08-01T11:00:09.338Z,4.20
2017-08-01T11:02:37.522Z,3.70
2017-08-01T11:05:05.652Z,3.20
2017-08-01T11:07:34.696Z,3.50
2017-08-01T11:10:02.841Z,5.00
2017-08-01T11:12:30.987Z,4.47
2017-08-01T11:14:59.940Z,4.80
2017-08-01T11:17:28.078Z,4.30
2017-08-01T11:19:56.340Z,3.70
2017-08-01T11:22:24.474Z,3.80
2017-08-01T11:24:52.606Z,5.20
2017-08-01T11:27:20.762Z,4.07
2017-08-01T11:29:48.902Z,4.00
2017-08-01T11:32:17.844Z,4.93
2017-08-01T11:34:45.974Z,3.60
2017-08-01T11:37:14.942Z,4.53
2017-08-01T11:39:43.853Z,4.57
2017-08-01T11:42:12.878Z,5.07
2017-08-01T11:44:41.019Z,4.10
2017-08-01T11:47:09.927Z,5.50
2017-08-01T11:49:38.095Z,4.37
2017-08-01T11:52:06.217Z,3.63
2017-08-01T11:54:34.396Z,5.77
2017-08-01T11:57:02.544Z,5.53
2017-08-01T11:59:30.724Z,4.70
2017-08-01T12:01:58.867Z,5.53
2017-08-01T12:04:27.039Z,4.80
2017-08-01T12:06:55.169Z,4.60
2017-08-01T12:09:24.084Z,4.97
2017-08-01T12:11:52.259Z,4.03
2017-08-01T12:14:20.390Z,4.80
2017-08-01T12:16:48.657Z,5.43
2017-08-01T12:19:16.790Z,5.10
2017-08-01T12:21:44.934Z,4.60
2017-08-01T12:24:13.870Z,5.37
2017-08-01T12:26:42.013Z,4.50
2017-08-01T12:29:10.210Z,4.60
2017-08-01T12:31:38.353Z,5.63
2017-08-01T12:34:06.500Z,5.07
2017-08-01T12:36:35.432Z,5.10
2017-08-01T12:39:03.583Z,4.67
2017-08-01T12:41:31.759Z,6.10
2017-08-01T12:43:59.911Z,4.73
2017-08-01T12:46:28.890Z,5.23
2017-08-01T12:48:57.794Z,5.50
2017-08-01T12:51:26.703Z,3.53
2017-08-01T12:53:54.874Z,5.87
2017-08-01T12:56:23.014Z,4.70
2017-08-01T12:58:51.182Z,4.90
2017-08-01T13:01:20.084Z,4.60
2017-08-01T13:03:48.407Z,4.13
2017-08-01T13:06:16.545Z,4.50
2017-08-01T13:08:44.683Z,5.40
2017-08-01T13:11:12.858Z,4.77
2017-08-01T13:13:41.972Z,4.10
2017-08-01T13:16:11.017Z,4.10
2017-08-01T13:18:39.149Z,5.03
2017-08-01T13:21:07.293Z,4.30
2017-08-01T13:23:35.480Z,4.97
2017-08-01T13:26:04.377Z,5.40
2017-08-01T13:28:32.533Z,4.77
2017-08-01T13:31:01.435Z,5.40
2017-08-01T13:33:29.593Z,4.63
2017-08-01T13:35:57.727Z,5.10
2017-08-01T13:38:25.893Z,4.80
2017-08-01T13:40:54.013Z,5.47
2017-08-01T13:43:22.915Z,4.03
2017-08-01T13:45:51.071Z,5.13
2017-08-01T13:48:19.975Z,5.57
2017-08-01T13:50:48.138Z,4.80
2017-08-01T13:53:17.043Z,5.50
2017-08-01T13:55:45.220Z,5.70
2017-08-01T13:58:13.363Z,4.53
2017-08-01T14:00:41.554Z,4.83
2017-08-01T14:03:09.700Z,5.07
2017-08-01T14:05:38.616Z,4.90
2017-08-01T14:08:06.775Z,4.90
2017-08-01T14:10:35.680Z,5.37
2017-08-01T14:13:03.855Z,4.80
2017-08-01T14:15:31.983Z,4.40
2017-08-01T14:18:00.255Z,5.20
2017-08-01T14:20:28.395Z,4.80
2017-08-01T14:22:56.753Z,5.43
2017-08-01T14:25:24.921Z,4.40
2017-08-01T14:27:53.054Z,5.23
2017-08-01T14:30:22.021Z,4.60
2017-08-01T14:32:50.217Z,4.30
2017-08-01T14:35:18.398Z,4.50
2017-08-01T14:37:47.288Z,4.97
2017-08-01T14:40:16.191Z,4.90
2017-08-01T14:42:44.366Z,4.37
2017-08-01T14:45:12.512Z,3.90
2017-08-01T14:47:40.699Z,5.90
2017-08-01T14:50:09.124Z,5.00
2017-08-01T14:52:37.265Z,4.30
2017-08-01T14:55:05.421Z,4.00
2017-08-01T14:57:34.330Z,5.10
2017-08-01T15:00:02.491Z,4.93
2017-08-01T15:02:30.635Z,4.80
2017-08-01T15:04:59.582Z,5.53
2017-08-01T15:07:27.723Z,4.97
2017-08-01T15:09:55.915Z,5.30
2017-08-01T15:12:24.043Z,4.33
2017-08-01T15:14:52.954Z,4.53
2017-08-01T15:17:21.116Z,5.90
2017-08-01T15:19:49.283Z,5.27
2017-08-01T15:22:18.223Z,5.10
2017-08-01T15:24:46.366Z,5.60
2017-08-01T15:27:14.493Z,5.60
2017-08-01T15:29:42.663Z,5.20
2017-08-01T15:32:10.800Z,5.60
2017-08-01T15:34:38.970Z,4.73
2017-08-01T15:37:07.111Z,4.27
2017-08-01T15:39:35.273Z,5.50
2017-08-01T15:42:04.180Z,5.33
2017-08-01T15:44:32.358Z,5.70
2017-08-01T15:47:00.496Z,4.50
2017-08-01T15:49:28.631Z,4.37
2017-08-01T15:51:56.812Z,5.00
2017-08-01T15:54:24.952Z,4.93
2017-08-01T15:56:53.117Z,6.20
2017-08-01T15:59:21.255Z,5.87
2017-08-01T16:01:50.209Z,5.77
2017-08-01T16:04:18.342Z,5.93
2017-08-01T16:06:46.483Z,5.00
2017-08-01T16:09:14.642Z,6.73
2017-08-01T16:11:42.788Z,5.30
2017-08-01T16:14:10.958Z,5.73
2017-08-01T16:16:39.105Z,5.10
2017-08-01T16:19:07.295Z,5.00
2017-08-01T16:21:35.435Z,5.00
2017-08-01T16:24:04.325Z,4.53
2017-08-01T16:26:32.484Z,4.50
2017-08-01T16:29:00.617Z,4.80
2017-08-01T16:31:28.783Z,4.10
2017-08-01T16:33:56.927Z,5.40
2017-08-01T16:36:25.089Z,5.57
2017-08-01T16:38:53.216Z,4.30
2017-08-01T16:41:21.401Z,5.33
2017-08-01T16:43:50.297Z,4.50
2017-08-01T16:46:18.467Z,5.80
2017-08-01T16:48:47.366Z,4.40
2017-08-01T16:51:16.263Z,3.73
2017-08-01T16:53:45.194Z,5.20
2017-08-01T16:56:13.358Z,4.73
2017-08-01T16:58:41.539Z,6.10
2017-08-01T17:01:09.665Z,4.50
2017-08-01T17:03:38.606Z,3.90
2017-08-01T17:06:06.744Z,4.00
2017-08-01T17:08:35.594Z,3.77
2017-08-01T17:11:03.722Z,3.93
2017-08-01T17:13:31.867Z,4.57
2017-08-01T17:16:00.031Z,4.17
2017-08-01T17:18:28.180Z,4.20
2017-08-01T17:20:57.385Z,3.00
2017-08-01T17:23:25.553Z,4.00
2017-08-01T17:25:53.757Z,4.67
2017-08-01T17:28:21.905Z,4.33
2017-08-01T17:30:50.838Z,4.43
2017-08-01T17:33:18.989Z,3.87
2017-08-01T17:35:47.163Z,4.57
2017-08-01T17:38:15.302Z,3.30
2017-08-01T17:40:43.439Z,3.40
2017-08-01T17:43:11.597Z,3.03
2017-08-01T17:45:39.741Z,3.80
2017-08-01T17:48:07.915Z,3.40
2017-08-01T17:50:36.056Z,3.67
2017-08-01T17:53:04.239Z,3.57
2017-08-01T17:55:33.126Z,4.70
2017-08-01T17:58:01.259Z,4.20
2017-08-01T18:00:29.432Z,4.90
2017-08-01T18:02:57.567Z,4.13
2017-08-01T18:05:25.733Z,5.47
2017-08-01T18:07:53.878Z,4.27
2017-08-01T18:10:22.776Z,4.30
2017-08-01T18:12:51.702Z,4.30
2017-08-01T18:15:19.833Z,4.13
2017-08-01T18:17:48.765Z,6.13
2017-08-01T18:20:16.898Z,6.20
2017-08-01T18:22:45.200Z,5.93
2017-08-01T18:25:13.338Z,7.53
2017-08-01T18:27:42.258Z,7.30
2017-08-01T18:30:10.431Z,9.37
2017-08-01T18:32:38.564Z,7.77
2017-08-01T18:35:07.509Z,7.50
2017-08-01T18:37:35.647Z,5.90
2017-08-01T18:40:03.861Z,6.87
2017-08-01T18:42:31.986Z,6.90
2017-08-01T18:45:00.164Z,6.33
2017-08-01T18:47:28.313Z,5.30
2017-08-01T18:49:56.435Z,6.30
2017-08-01T18:52:24.605Z,5.30
2017-08-01T18:54:52.743Z,5.07
2017-08-01T18:57:21.669Z,5.73
2017-08-01T18:59:49.846Z,5.93
2017-08-01T19:02:18.025Z,7.37
2017-08-01T19:04:46.161Z,8.70
2017-08-01T19:07:14.343Z,9.33
2017-08-01T19:09:42.491Z,9.17
2017-08-01T19:12:11.410Z,9.17
2017-08-01T19:14:39.597Z,9.67
2017-08-01T19:17:07.789Z,7.23
2017-08-01T19:19:36.125Z,7.23
2017-08-01T19:22:04.359Z,8.73
2017-08-01T19:24:33.287Z,7.27
2017-08-01T19:27:01.478Z,6.50
2017-08-01T19:29:29.641Z,8.50
2017-08-01T19:31:57.878Z,8.17
2017-08-01T19:34:26.021Z,7.40
2017-08-01T19:36:54.152Z,6.27
2017-08-01T19:39:22.623Z,5.23
2017-08-01T19:41:51.202Z,4.67
2017-08-01T19:44:19.421Z,6.87
2017-08-01T19:46:47.672Z,6.87
2017-08-01T19:49:15.899Z,4.73
2017-08-01T19:51:44.301Z,3.70
2017-08-01T19:54:12.506Z,4.07
2017-08-01T19:56:40.919Z,5.17
2017-08-01T19:59:09.286Z,4.37
2017-08-01T20:01:38.300Z,3.70
2017-08-01T20:04:06.456Z,3.17
2017-08-01T20:06:35.428Z,4.97
2017-08-01T20:09:03.628Z,4.97
2017-08-01T20:11:32.587Z,3.77
2017-08-01T20:14:00.940Z,4.40
2017-08-01T20:16:29.146Z,3.67
2017-08-01T20:18:57.333Z,3.23
2017-08-01T20:21:25.482Z,3.30
2017-08-01T20:23:53.761Z,3.17
2017-08-01T20:26:21.898Z,3.20
2017-08-01T20:28:50.031Z,3.13
2017-08-01T20:31:18.958Z,2.63
2017-08-01T20:33:47.149Z,3.07
2017-08-01T20:36:15.368Z,4.27
2017-08-01T20:38:43.511Z,3.27
2017-08-01T20:41:11.646Z,4.90
2017-08-01T20:43:40.662Z,3.43
2017-08-01T20:46:08.790Z,4.33
2017-08-01T20:48:37.008Z,3.33
2017-08-01T20:51:05.159Z,6.17
2017-08-01T20:53:33.340Z,4.37
2017-08-01T20:56:01.479Z,2.50
2017-08-01T20:58:29.646Z,3.37
2017-08-01T21:00:57.810Z,3.67
2017-08-01T21:03:26.719Z,3.47
2017-08-01T21:05:54.899Z,3.60
2017-08-01T21:08:23.046Z,3.50
2017-08-01T21:10:51.315Z,2.83
2017-08-01T21:13:20.214Z,3.00
2017-08-01T21:15:48.661Z,3.13
2017-08-01T21:18:16.810Z,2.70
2017-08-01T21:20:44.958Z,3.67
2017-08-01T21:23:13.227Z,2.60
2017-08-01T21:25:41.371Z,3.80
2017-08-01T21:28:09.493Z,3.93
2017-08-01T21:30:37.663Z,2.83
2017-08-01T21:33:05.820Z,3.30
2017-08-01T21:35:33.997Z,4.27
2017-08-01T21:38:02.144Z,3.80
2017-08-01T21:40:30.302Z,4.17
2017-08-01T21:42:58.435Z,3.93
2017-08-01T21:45:26.609Z,4.40
2017-08-01T21:47:54.751Z,3.30
2017-08-01T21:50:22.905Z,4.30
2017-08-01T21:52:51.079Z,3.83
2017-08-01T21:55:19.233Z,4.20
2017-08-01T21:57:47.395Z,4.90
2017-08-01T22:00:16.306Z,2.90
2017-08-01T22:02:44.479Z,5.70
2017-08-01T22:05:12.623Z,4.97
2017-08-01T22:07:40.762Z,3.80
2017-08-01T22:10:09.750Z,4.33
2017-08-01T22:12:37.903Z,2.97
2017-08-01T22:15:06.074Z,3.80
2017-08-01T22:17:34.205Z,4.40
2017-08-01T22:20:03.119Z,3.77
2017-08-01T22:22:31.275Z,3.37
2017-08-01T22:24:59.407Z,3.83
2017-08-01T22:27:27.691Z,5.97
2017-08-01T22:29:55.834Z,3.17
2017-08-01T22:32:23.966Z,3.33
2017-08-01T22:34:52.125Z,3.80
2017-08-01T22:37:20.257Z,4.20
2017-08-01T22:39:48.535Z,3.40
2017-08-01T22:42:16.676Z,3.80
2017-08-01T22:44:44.815Z,4.13
2017-08-01T22:47:12.972Z,5.63
2017-08-01T22:49:41.106Z,4.20
2017-08-01T22:52:09.278Z,4.90
2017-08-01T22:54:37.409Z,3.90
2017-08-01T22:57:05.579Z,3.47
2017-08-01T22:59:33.710Z,4.83
2017-08-01T23:02:01.841Z,3.03
2017-08-01T23:04:30.020Z,3.30
2017-08-01T23:06:58.159Z,3.97
2017-08-01T23:09:27.083Z,3.20
2017-08-01T23:11:55.213Z,5.20
2017-08-01T23:14:23.487Z,4.80
2017-08-01T23:16:52.382Z,4.23
2017-08-01T23:19:21.277Z,5.00
2017-08-01T23:21:49.445Z,4.10
2017-08-01T23:24:17.574Z,3.00
2017-08-01T23:26:45.746Z,3.50
2017-08-01T23:29:13.887Z,4.23
2017-08-01T23:31:42.165Z,7.60
2017-08-01T23:34:10.302Z,4.10
2017-08-01T23:36:38.583Z,4.20
2017-08-01T23:39:06.751Z,3.30
2017-08-01T23:41:34.908Z,3.70
2017-08-01T23:44:03.863Z,3.33
2017-08-01T23:46:31.989Z,4.20
2017-08-01T23:49:00.130Z,4.00
2017-08-01T23:51:28.299Z,5.33
2017-08-01T23:53:56.439Z,5.20
2017-08-01T23:56:24.599Z,5.10
2017-08-01T23:58:52.753Z,3.63
